Time;durP1;ratioP1;P1;durP2;ratioP2;P2;SDS_P1;SDS_P2;PMS_P1;PMS_P2;Temp;Humidity;BMP_temperature;BMP_pressure;BME280_temperature;BME280_humidity;BME280_pressure;Samples;Min_cycle;Max_cycle;Signal;HPM_P1;HPM_P2
2023/01/14 00:03:11;;;;;;;8.55;2.30;;;6.60;99.90;;;;;;12428841;28;20053;-80
2023/01/14 00:09:13;;;;;;;14.05;2.20;;;6.60;99.90;;;;;;12426107;28;20053;-80
2023/01/14 00:15:16;;;;;;;8.23;1.55;;;6.60;99.90;;;;;;12422373;28;20395;-80
2023/01/14 00:21:19;;;;;;;9.27;1.70;;;6.70;99.90;;;;;;12429713;28;20041;-80
2023/01/14 00:27:21;;;;;;;11.43;2.75;;;6.70;99.90;;;;;;12414912;28;20050;-80
2023/01/14 00:33:22;;;;;;;8.20;1.80;;;6.80;99.90;;;;;;12417781;28;20038;-80
2023/01/14 00:39:25;;;;;;;10.88;1.95;;;6.60;99.90;;;;;;12406921;28;20058;-79
2023/01/14 00:45:27;;;;;;;9.23;2.08;;;6.50;99.90;;;;;;12411874;28;20049;-79
2023/01/14 00:51:29;;;;;;;14.40;1.83;;;6.50;99.90;;;;;;12423523;28;20486;-79
2023/01/14 00:57:32;;;;;;;9.27;1.50;;;6.60;99.90;;;;;;12423984;28;20124;-79
2023/01/14 01:03:42;;;;;;;6.57;1.45;;;6.60;99.90;;;;;;12436584;28;20543;-79
2023/01/14 01:09:47;;;;;;;8.32;1.75;;;6.50;99.90;;;;;;12417765;28;20050;-79
2023/01/14 01:15:50;;;;;;;7.33;1.70;;;6.30;99.90;;;;;;12443964;28;20091;-79
2023/01/14 01:21:52;;;;;;;12.68;2.10;;;6.40;99.90;;;;;;12435609;28;20053;-78
2023/01/14 01:27:55;;;;;;;8.35;1.85;;;6.30;99.90;;;;;;12428234;28;20092;-79
2023/01/14 01:33:57;;;;;;;11.43;1.95;;;6.30;99.90;;;;;;12437292;28;20046;-80
2023/01/14 01:39:58;;;;;;;9.60;1.95;;;6.20;99.90;;;;;;12441753;28;20057;-80
2023/01/14 01:46:00;;;;;;;11.02;1.88;;;6.20;99.90;;;;;;12437099;28;20069;-80
2023/01/14 01:52:26;;;;;;;8.85;1.73;;;6.10;99.90;;;;;;12437464;28;20520;-80
2023/01/14 01:58:30;;;;;;;13.35;2.60;;;6.10;99.90;;;;;;12444476;28;20046;-80
2023/01/14 02:04:32;;;;;;;9.30;1.80;;;6.10;99.90;;;;;;12431588;28;20403;-80
2023/01/14 02:10:43;;;;;;;9.63;1.85;;;6.10;99.90;;;;;;12437954;28;20549;-80
2023/01/14 02:17:06;;;;;;;8.88;2.33;;;6.20;99.90;;;;;;12433703;28;20410;-80
2023/01/14 02:23:53;;;;;;;13.93;2.28;;;6.20;99.90;;;;;;12437960;28;20049;-81
2023/01/14 02:30:00;;;;;;;15.10;2.92;;;6.20;99.90;;;;;;12419377;28;20101;-80
2023/01/14 02:36:11;;;;;;;17.25;3.00;;;6.30;99.90;;;;;;12432743;28;20247;-80
2023/01/14 02:48:44;;;;;;;18.05;3.17;;;6.50;99.90;;;;;;12434470;28;20058;-81
2023/01/14 02:54:54;;;;;;;15.48;3.80;;;6.60;99.90;;;;;;12430455;28;20505;-80
2023/01/14 03:01:20;;;;;;;23.15;4.28;;;6.70;99.90;;;;;;12426403;28;20084;-80
2023/01/14 03:07:26;;;;;;;15.25;3.75;;;6.70;99.90;;;;;;12432967;28;21466;-80
2023/01/14 03:13:54;;;;;;;25.40;4.60;;;6.70;99.90;;;;;;12426500;28;20524;-80
2023/01/14 03:20:27;;;;;;;21.90;4.38;;;6.70;99.90;;;;;;12426906;28;20046;-80
2023/01/14 03:26:32;;;;;;;18.38;3.67;;;6.70;99.90;;;;;;12436976;28;20054;-80
2023/01/14 03:32:48;;;;;;;21.05;3.97;;;6.80;99.90;;;;;;12440904;28;21028;-81
2023/01/14 03:39:07;;;;;;;20.17;4.53;;;6.80;99.90;;;;;;12429488;28;20121;-79
2023/01/14 03:45:29;;;;;;;22.20;3.67;;;6.80;99.90;;;;;;12431465;28;20049;-80
2023/01/14 03:51:42;;;;;;;25.48;3.67;;;6.80;99.90;;;;;;12438294;28;20481;-80
2023/01/14 03:57:43;;;;;;;20.98;3.22;;;6.90;99.90;;;;;;12438964;28;20083;-80
2023/01/14 04:03:46;;;;;;;17.70;3.33;;;6.80;99.90;;;;;;12422705;28;20111;-80
2023/01/14 04:09:49;;;;;;;16.95;3.65;;;6.90;99.90;;;;;;12424366;28;20099;-80
2023/01/14 04:15:51;;;;;;;19.52;3.45;;;6.90;99.90;;;;;;12423066;28;20172;-81
2023/01/14 04:21:52;;;;;;;20.05;3.83;;;6.70;99.90;;;;;;12426943;28;20095;-80
2023/01/14 04:27:54;;;;;;;18.88;3.65;;;6.60;99.90;;;;;;12420556;28;20128;-79
2023/01/14 04:33:56;;;;;;;22.35;3.75;;;6.50;99.90;;;;;;12425702;28;20033;-80
2023/01/14 04:39:58;;;;;;;24.23;4.15;;;6.30;99.90;;;;;;12434710;28;20054;-81
2023/01/14 04:46:00;;;;;;;24.20;4.40;;;6.30;99.90;;;;;;12413754;28;20078;-79
2023/01/14 04:52:02;;;;;;;21.33;4.53;;;6.20;99.90;;;;;;12427233;28;20073;-79
2023/01/14 04:58:05;;;;;;;21.45;5.22;;;6.20;99.90;;;;;;12431986;28;20057;-80
2023/01/14 05:04:07;;;;;;;18.88;4.80;;;6.20;99.90;;;;;;12435854;28;20096;-80
2023/01/14 05:10:09;;;;;;;26.02;5.40;;;6.30;99.90;;;;;;12433787;28;20482;-80
2023/01/14 05:16:11;;;;;;;28.38;6.80;;;6.30;99.90;;;;;;12439116;28;20080;-80
2023/01/14 05:22:13;;;;;;;30.50;6.18;;;6.30;99.90;;;;;;12431759;28;20570;-80
2023/01/14 05:28:17;;;;;;;26.95;6.05;;;6.40;99.90;;;;;;12424099;28;20042;-80
2023/01/14 05:34:19;;;;;;;24.13;5.85;;;6.40;99.90;;;;;;12434494;28;20129;-79
2023/01/14 05:40:21;;;;;;;24.02;5.57;;;6.50;99.90;;;;;;12430931;28;20042;-80
2023/01/14 05:46:22;;;;;;;24.55;4.63;;;6.40;99.90;;;;;;12433258;28;20406;-80
2023/01/14 05:52:24;;;;;;;24.08;4.30;;;6.30;99.90;;;;;;12438849;28;20521;-80
2023/01/14 05:58:27;;;;;;;25.20;4.13;;;6.20;99.90;;;;;;12437101;28;20103;-79
2023/01/14 06:10:51;;;;;;;21.20;3.80;;;5.90;99.90;;;;;;12424906;28;20387;-79
2023/01/14 06:16:52;;;;;;;25.10;5.50;;;5.90;99.90;;;;;;12421635;28;20128;-81
2023/01/14 06:22:55;;;;;;;19.98;4.97;;;6.00;99.90;;;;;;12448550;28;20049;-80
2023/01/14 06:28:59;;;;;;;21.73;3.67;;;6.00;99.90;;;;;;12452796;28;20128;-79
2023/01/14 06:35:01;;;;;;;21.10;3.33;;;5.90;99.90;;;;;;12483871;28;20029;-80
2023/01/14 06:41:05;;;;;;;23.30;3.08;;;6.00;99.90;;;;;;12467559;28;20076;-80
2023/01/14 06:47:06;;;;;;;20.90;3.30;;;6.00;99.90;;;;;;12465754;28;20057;-80
2023/01/14 06:53:08;;;;;;;18.42;3.08;;;6.00;99.90;;;;;;12416971;28;20297;-80
2023/01/14 06:59:10;;;;;;;21.15;3.40;;;6.00;99.90;;;;;;12429804;28;20100;-81
2023/01/14 07:05:14;;;;;;;20.85;3.33;;;6.00;99.90;;;;;;12432490;28;20044;-80
2023/01/14 07:11:16;;;;;;;19.60;2.85;;;6.00;99.90;;;;;;12428841;28;20129;-80
2023/01/14 07:17:17;;;;;;;21.95;3.47;;;6.00;99.90;;;;;;12414278;28;20046;-80
2023/01/14 07:23:19;;;;;;;18.92;2.80;;;6.00;99.90;;;;;;12450230;28;20100;-80
2023/01/14 07:29:21;;;;;;;17.15;3.40;;;5.90;99.90;;;;;;12441826;28;20054;-79
2023/01/14 07:35:23;;;;;;;18.90;2.75;;;5.90;99.90;;;;;;12428035;28;20062;-80
2023/01/14 07:41:25;;;;;;;25.52;3.38;;;5.90;99.90;;;;;;12437363;28;20042;-80
2023/01/14 07:47:27;;;;;;;17.60;2.95;;;5.90;99.90;;;;;;12434617;28;20089;-80
2023/01/14 07:53:29;;;;;;;23.33;2.65;;;5.80;99.90;;;;;;12425364;28;20057;-79
2023/01/14 07:59:31;;;;;;;19.10;2.80;;;5.90;99.90;;;;;;12434149;28;20081;-79
2023/01/14 08:05:36;;;;;;;16.23;2.58;;;5.90;99.90;;;;;;12418793;28;20684;-79
2023/01/14 08:11:38;;;;;;;22.27;2.65;;;5.90;99.90;;;;;;12433690;28;20054;-79
2023/01/14 08:17:40;;;;;;;18.48;2.78;;;6.00;99.90;;;;;;12415542;28;20107;-80
2023/01/14 08:23:42;;;;;;;13.40;2.13;;;6.00;99.90;;;;;;12431094;28;20042;-79
2023/01/14 08:29:45;;;;;;;17.30;2.75;;;6.00;99.90;;;;;;12428993;28;20096;-78
2023/01/14 08:35:46;;;;;;;17.70;2.55;;;6.10;99.90;;;;;;12431210;28;20053;-79
2023/01/14 08:41:48;;;;;;;14.88;2.67;;;6.10;99.90;;;;;;12420265;28;20553;-78
2023/01/14 08:47:52;;;;;;;12.10;2.13;;;6.20;99.90;;;;;;12416546;28;20047;-79
2023/01/14 08:53:55;;;;;;;19.88;2.20;;;6.20;99.90;;;;;;12430051;28;20050;-79
2023/01/14 08:59:57;;;;;;;13.60;3.10;;;6.30;99.90;;;;;;12425420;28;20387;-78
2023/01/14 09:06:00;;;;;;;15.65;2.72;;;6.30;99.90;;;;;;12409855;28;20038;-78
2023/01/14 09:18:22;;;;;;;12.75;2.00;;;6.40;99.90;;;;;;12416074;28;20042;-80
2023/01/14 09:24:24;;;;;;;11.75;2.20;;;6.40;99.90;;;;;;12426431;28;20129;-79
2023/01/14 09:30:27;;;;;;;15.82;2.08;;;6.50;99.90;;;;;;12425187;28;20104;-79
2023/01/14 09:36:32;;;;;;;13.13;2.53;;;6.50;99.90;;;;;;12429734;28;20062;-79
2023/01/14 09:42:40;;;;;;;13.10;2.13;;;6.40;99.90;;;;;;12412847;28;20054;-80
2023/01/14 09:48:42;;;;;;;13.45;1.90;;;6.30;99.90;;;;;;12434059;28;20057;-79
2023/01/14 09:54:59;;;;;;;13.65;2.83;;;6.20;99.90;;;;;;12418203;28;20517;-79
2023/01/14 10:01:35;;;;;;;9.93;2.08;;;6.10;99.90;;;;;;12425015;28;20406;-80
2023/01/14 10:07:37;;;;;;;13.35;2.22;;;6.00;99.90;;;;;;12432675;28;20406;-80
2023/01/14 10:13:49;;;;;;;16.30;2.25;;;5.90;99.90;;;;;;12434726;28;20048;-80
2023/01/14 10:19:52;;;;;;;18.52;2.67;;;5.90;99.90;;;;;;12437024;28;20144;-80
2023/01/14 10:25:56;;;;;;;12.43;1.85;;;5.90;99.90;;;;;;12424242;28;20038;-80
2023/01/14 10:32:00;;;;;;;17.95;2.25;;;5.90;99.90;;;;;;12438882;28;20375;-80
2023/01/14 10:38:03;;;;;;;12.27;2.35;;;5.90;99.90;;;;;;12432208;28;20053;-80
2023/01/14 10:44:35;;;;;;;10.55;1.80;;;5.90;99.90;;;;;;12430220;28;20042;-79
2023/01/14 10:50:37;;;;;;;12.50;1.73;;;5.90;99.90;;;;;;12420295;28;20132;-80
2023/01/14 10:57:01;;;;;;;9.65;1.88;;;6.00;99.90;;;;;;12428096;28;20046;-80
2023/01/14 11:03:07;;;;;;;15.30;2.00;;;5.90;99.90;;;;;;12423432;28;20039;-80
2023/01/14 11:09:24;;;;;;;12.00;1.80;;;6.00;99.90;;;;;;12420935;28;20056;-80
2023/01/14 11:15:36;;;;;;;10.57;2.00;;;6.00;99.90;;;;;;12434801;28;20581;-80
2023/01/14 11:21:45;;;;;;;11.80;1.60;;;6.10;99.90;;;;;;12417467;28;20180;-80
2023/01/14 11:27:49;;;;;;;10.27;1.50;;;6.10;99.90;;;;;;12427155;28;20053;-80
2023/01/14 11:33:51;;;;;;;11.50;1.73;;;6.10;99.90;;;;;;12420532;28;20095;-80
2023/01/14 11:39:59;;;;;;;9.25;2.03;;;6.20;99.90;;;;;;12428273;28;20095;-81
2023/01/14 11:46:09;;;;;;;7.47;1.58;;;6.10;99.90;;;;;;12432750;28;20069;-80
2023/01/14 11:52:20;;;;;;;8.77;1.70;;;6.10;99.90;;;;;;12425271;28;20046;-80
2023/01/14 11:58:28;;;;;;;8.77;1.80;;;6.10;99.90;;;;;;12418862;28;20181;-80
2023/01/14 12:05:05;;;;;;;11.68;1.80;;;6.20;99.90;;;;;;12403756;28;20506;-79
2023/01/14 12:11:17;;;;;;;12.18;1.65;;;6.20;99.90;;;;;;12419888;28;20050;-79
2023/01/14 12:17:29;;;;;;;10.75;2.05;;;6.20;99.90;;;;;;12428984;28;20043;-79
2023/01/14 12:23:48;;;;;;;9.73;1.65;;;6.30;99.90;;;;;;12419762;28;20466;-80
2023/01/14 12:29:51;;;;;;;9.95;1.60;;;6.40;99.90;;;;;;12418110;28;20104;-80
2023/01/14 12:36:03;;;;;;;6.93;1.48;;;6.40;99.90;;;;;;12428867;28;20049;-80
2023/01/14 12:49:05;;;;;;;9.35;2.00;;;6.50;99.90;;;;;;12411414;28;20141;-79
2023/01/14 12:55:31;;;;;;;6.82;1.95;;;6.60;99.90;;;;;;12434163;28;20042;-80
2023/01/14 13:01:40;;;;;;;10.93;2.63;;;6.50;99.90;;;;;;12420089;28;20103;-80
2023/01/14 13:07:50;;;;;;;11.55;2.50;;;6.60;99.90;;;;;;12441770;28;20127;-80
2023/01/14 13:13:54;;;;;;;8.68;2.10;;;6.50;99.90;;;;;;12436552;28;20046;-79
2023/01/14 13:19:57;;;;;;;9.20;2.05;;;6.50;99.90;;;;;;12421404;28;20053;-80
2023/01/14 13:25:58;;;;;;;6.75;2.03;;;6.60;99.90;;;;;;12446132;28;20034;-81
2023/01/14 13:32:01;;;;;;;8.00;2.03;;;6.70;99.90;;;;;;12430729;28;20520;-80
2023/01/14 13:38:18;;;;;;;10.40;1.77;;;6.70;99.90;;;;;;12443043;28;20096;-80
2023/01/14 13:44:25;;;;;;;6.32;1.45;;;6.70;99.90;;;;;;12437921;28;20096;-80
2023/01/14 13:50:32;;;;;;;7.65;1.50;;;6.70;99.90;;;;;;12439441;28;20050;-80
2023/01/14 13:56:35;;;;;;;5.97;1.23;;;6.80;99.90;;;;;;12427888;28;20069;-80
2023/01/14 14:02:53;;;;;;;3.67;1.17;;;6.80;99.90;;;;;;12435602;28;20077;-80
2023/01/14 14:09:14;;;;;;;2.50;1.00;;;6.90;99.90;;;;;;12440114;28;20573;-79
2023/01/14 14:15:22;;;;;;;3.70;1.10;;;6.90;99.90;;;;;;12424277;28;20124;-80
2023/01/14 14:21:31;;;;;;;2.65;0.80;;;6.90;99.90;;;;;;12426407;28;20046;-79
2023/01/14 14:27:40;;;;;;;2.50;0.90;;;7.00;99.90;;;;;;12435661;28;20054;-80
2023/01/14 14:33:43;;;;;;;5.20;1.20;;;7.00;99.90;;;;;;12432416;28;20490;-80
2023/01/14 14:39:54;;;;;;;4.25;0.98;;;7.10;99.90;;;;;;12418427;28;20053;-79
2023/01/14 14:46:23;;;;;;;2.00;1.00;;;7.10;99.90;;;;;;12414481;28;20158;-79
2023/01/14 14:52:27;;;;;;;1.75;0.73;;;7.20;99.90;;;;;;12414147;28;20054;-80
2023/01/14 14:58:29;;;;;;;3.80;0.83;;;7.30;99.90;;;;;;12430192;28;20648;-80
2023/01/14 15:04:31;;;;;;;3.17;0.77;;;7.30;99.90;;;;;;12424548;28;20099;-80
2023/01/14 15:10:34;;;;;;;1.55;0.68;;;7.40;99.90;;;;;;12438305;28;20050;-80
2023/01/14 15:16:36;;;;;;;1.67;0.75;;;7.50;99.90;;;;;;12426380;28;20613;-80
2023/01/14 15:22:39;;;;;;;2.60;0.82;;;7.60;99.90;;;;;;12416889;28;20486;-80
2023/01/14 15:28:42;;;;;;;3.42;1.23;;;7.60;99.90;;;;;;12425575;28;20095;-80
2023/01/14 15:34:48;;;;;;;4.23;1.17;;;7.70;99.90;;;;;;12423263;28;20056;-80
2023/01/14 15:40:51;;;;;;;2.35;0.80;;;7.70;99.90;;;;;;12428459;28;20125;-80
2023/01/14 15:46:53;;;;;;;3.03;1.33;;;7.80;99.90;;;;;;12426708;28;20049;-80
2023/01/14 15:53:26;;;;;;;5.88;1.48;;;7.80;99.90;;;;;;12429917;28;20042;-80
2023/01/14 15:59:29;;;;;;;1.10;0.68;;;7.90;99.90;;;;;;12432472;28;20512;-79
2023/01/14 16:05:35;;;;;;;3.75;0.90;;;7.90;99.90;;;;;;12431408;28;20418;-80
2023/01/14 16:11:58;;;;;;;3.25;0.90;;;8.00;99.90;;;;;;12438897;28;20180;-80
2023/01/14 16:18:12;;;;;;;3.20;0.80;;;8.00;99.90;;;;;;12429114;28;20172;-80
2023/01/14 16:24:14;;;;;;;1.53;0.70;;;8.00;99.90;;;;;;12423376;28;20046;-79
2023/01/14 16:30:17;;;;;;;2.10;0.80;;;8.10;99.90;;;;;;12406632;28;20187;-80
2023/01/14 16:36:39;;;;;;;3.03;0.75;;;8.20;99.90;;;;;;12420240;28;20192;-80
2023/01/14 16:42:42;;;;;;;3.22;0.60;;;8.20;99.90;;;;;;12428797;28;20050;-80
2023/01/14 16:48:45;;;;;;;1.35;0.55;;;8.20;99.90;;;;;;12421857;28;20096;-80
2023/01/14 16:54:47;;;;;;;1.20;0.50;;;8.30;99.90;;;;;;12417201;28;20042;-79
2023/01/14 17:00:49;;;;;;;1.42;0.63;;;8.30;99.90;;;;;;12431509;28;20148;-80
2023/01/14 17:06:51;;;;;;;0.90;0.40;;;8.30;99.90;;;;;;12428072;28;20418;-80
2023/01/14 17:12:53;;;;;;;1.27;0.50;;;8.40;99.90;;;;;;12435982;28;20053;-80
2023/01/14 17:18:55;;;;;;;0.68;0.50;;;8.40;99.90;;;;;;12419407;28;20148;-80
2023/01/14 17:24:57;;;;;;;0.70;0.40;;;8.40;99.90;;;;;;12418082;28;20076;-80
2023/01/14 17:30:59;;;;;;;0.98;0.50;;;8.40;99.90;;;;;;12411334;28;20138;-80
2023/01/14 17:37:01;;;;;;;1.42;0.50;;;8.50;99.90;;;;;;12433804;28;20525;-80
2023/01/14 17:43:03;;;;;;;1.65;0.55;;;8.50;99.90;;;;;;12441781;28;20050;-79
2023/01/14 17:49:05;;;;;;;1.75;0.80;;;8.60;99.90;;;;;;12438337;28;20054;-80
2023/01/14 17:55:07;;;;;;;0.77;0.28;;;8.60;99.90;;;;;;12439948;28;20053;-81
2023/01/14 18:01:12;;;;;;;1.13;0.43;;;8.70;99.90;;;;;;12449519;28;20042;-79
2023/01/14 18:07:14;;;;;;;1.00;0.57;;;8.70;99.90;;;;;;12438475;28;20169;-79
2023/01/14 18:13:16;;;;;;;2.53;0.50;;;8.70;99.90;;;;;;12425253;28;20464;-81
2023/01/14 18:19:18;;;;;;;0.68;0.40;;;8.70;99.90;;;;;;12425478;28;20164;-79
2023/01/14 18:25:20;;;;;;;0.70;0.47;;;8.80;99.90;;;;;;12418935;28;20045;-79
2023/01/14 18:31:24;;;;;;;1.17;0.50;;;8.80;99.90;;;;;;12436019;28;20513;-79
2023/01/14 18:37:25;;;;;;;2.30;0.40;;;8.80;99.90;;;;;;12430915;28;20081;-79
2023/01/14 18:43:27;;;;;;;1.33;0.60;;;8.90;99.90;;;;;;12440829;28;20513;-79
2023/01/14 18:49:29;;;;;;;0.40;0.30;;;8.90;99.90;;;;;;12443435;28;20050;-80
2023/01/14 18:55:31;;;;;;;1.15;0.55;;;8.90;99.90;;;;;;12450341;28;20050;-81
2023/01/14 19:01:33;;;;;;;1.02;0.45;;;9.00;99.90;;;;;;12477287;28;20054;-81
2023/01/14 19:07:35;;;;;;;0.80;0.50;;;9.10;99.90;;;;;;12476316;28;20070;-80
2023/01/14 19:13:37;;;;;;;1.60;0.68;;;9.10;99.90;;;;;;12481432;28;20050;-80
2023/01/14 19:19:39;;;;;;;0.80;0.47;;;9.10;99.90;;;;;;12416562;28;20051;-80
2023/01/14 19:25:42;;;;;;;2.45;0.50;;;9.20;99.90;;;;;;12409228;28;20041;-80
2023/01/14 19:31:44;;;;;;;1.10;0.50;;;9.20;99.90;;;;;;12431054;28;20058;-80
2023/01/14 19:37:46;;;;;;;1.30;0.80;;;9.30;99.90;;;;;;12435679;28;20692;-80
2023/01/14 19:43:48;;;;;;;2.20;0.60;;;9.30;99.90;;;;;;12438782;28;20042;-80
2023/01/14 19:49:50;;;;;;;1.55;0.60;;;9.30;99.90;;;;;;12436669;28;20053;-79
2023/01/14 19:55:55;;;;;;;0.88;0.60;;;9.30;99.90;;;;;;12428613;28;20549;-80
2023/01/14 20:02:13;;;;;;;1.13;0.70;;;9.40;99.90;;;;;;12430059;28;20049;-80
2023/01/14 20:08:18;;;;;;;0.82;0.63;;;9.60;99.90;;;;;;12432175;28;20152;-80
2023/01/14 20:14:19;;;;;;;1.60;0.90;;;9.60;99.90;;;;;;12439479;28;20532;-80
2023/01/14 20:20:22;;;;;;;3.03;0.80;;;9.70;99.90;;;;;;12430695;28;20087;-80
2023/01/14 20:26:29;;;;;;;1.00;0.60;;;9.80;99.90;;;;;;12425831;28;20064;-80
2023/01/14 20:32:32;;;;;;;0.90;0.60;;;9.80;99.90;;;;;;12418912;28;20042;-80
2023/01/14 20:38:35;;;;;;;0.57;0.53;;;9.80;99.90;;;;;;12435177;28;20069;-80
2023/01/14 20:44:55;;;;;;;0.88;0.60;;;9.90;99.90;;;;;;12403264;28;20481;-80
2023/01/14 20:51:05;;;;;;;0.88;0.60;;;10.00;99.90;;;;;;12425041;28;20152;-80
2023/01/14 20:57:08;;;;;;;1.60;0.80;;;10.10;99.90;;;;;;12422288;28;20065;-81
2023/01/14 21:03:10;;;;;;;1.15;0.70;;;10.10;99.90;;;;;;12415751;28;20050;-80
2023/01/14 21:09:23;;;;;;;1.55;0.73;;;10.20;99.90;;;;;;12417510;28;20060;-80
2023/01/14 21:28:08;;;;;;;0.90;0.50;;;10.30;99.90;;;;;;12417196;28;20491;-79
2023/01/14 21:34:10;;;;;;;1.15;0.70;;;10.40;99.90;;;;;;12440840;28;20113;-80
2023/01/14 21:40:14;;;;;;;0.93;0.73;;;10.30;99.90;;;;;;12440363;28;20050;-80
2023/01/14 21:46:16;;;;;;;1.27;1.00;;;10.20;99.90;;;;;;12436408;28;20137;-80
2023/01/14 21:52:20;;;;;;;2.20;1.10;;;10.10;99.90;;;;;;12434100;28;20453;-79
2023/01/14 21:58:25;;;;;;;2.07;1.00;;;10.20;99.90;;;;;;12439127;28;20054;-80
2023/01/14 22:04:28;;;;;;;2.95;1.10;;;10.20;99.90;;;;;;12396456;28;20053;-80
2023/01/14 22:10:32;;;;;;;2.90;1.25;;;10.30;99.90;;;;;;12429088;28;20053;-79
2023/01/14 22:16:34;;;;;;;2.63;1.13;;;10.20;99.90;;;;;;12426769;28;20050;-79
2023/01/14 22:22:36;;;;;;;2.38;1.00;;;10.20;99.90;;;;;;12424826;28;20049;-80
2023/01/14 22:28:39;;;;;;;4.22;1.20;;;10.20;99.90;;;;;;12413924;28;20149;-79
2023/01/14 22:34:41;;;;;;;2.92;1.20;;;10.20;99.90;;;;;;12416190;28;20054;-79
2023/01/14 22:40:43;;;;;;;3.00;1.10;;;10.10;99.90;;;;;;12404943;28;20058;-79
2023/01/14 22:46:45;;;;;;;3.58;1.10;;;10.00;99.90;;;;;;12424631;28;20042;-79
2023/01/14 22:52:46;;;;;;;3.85;1.40;;;10.00;99.90;;;;;;12440475;28;20514;-79
2023/01/14 22:58:48;;;;;;;3.45;1.00;;;9.90;99.90;;;;;;12432037;28;20100;-79
2023/01/14 23:04:50;;;;;;;2.15;1.13;;;9.80;99.90;;;;;;12426135;28;20045;-79
2023/01/14 23:11:12;;;;;;;2.97;1.00;;;9.70;99.90;;;;;;12455110;28;20060;-79
2023/01/14 23:17:26;;;;;;;1.77;0.70;;;9.80;99.90;;;;;;12428510;28;20514;-79
2023/01/14 23:29:48;;;;;;;1.50;0.45;;;8.80;99.90;;;;;;12426775;28;20176;-78
2023/01/14 23:35:50;;;;;;;3.13;0.50;;;8.20;99.90;;;;;;12426264;28;20169;-78
2023/01/14 23:41:52;;;;;;;2.33;0.60;;;7.90;99.90;;;;;;12430002;28;20042;-78
2023/01/14 23:48:13;;;;;;;2.78;0.50;;;7.60;99.90;;;;;;12416655;28;20390;-79
2023/01/14 23:54:15;;;;;;;3.55;0.60;;;7.40;99.90;;;;;;12439143;28;20128;-79
